2B1 weather

Cape Cod Airport
Marston Mills, Massachusetts, United States

Public forecast

Using degrees Fahrenheit for public forecast. Weather courtesy of forecast.io.

METAR (pilot weather report)

Closest report is Barnstable Municipal Boardman Polando Field, 5.6 nm (10.3 km) E. Retrieved 2019/05/23 12:56 UTC (33 minutes ago):

KHYA 231256Z 20010KT 10SM OVC085 14/07 A3023 RMK AO2 SLP238 T01440067 $

TAF (pilot weather forecast)

Closest forecast is Barnstable Municipal Boardman Polando Field, 5.6 nm (10.3 km) E. Retrieved 2019/05/23 12:22 UTC (1 hour ago):

TAF KHYA 231120Z 2312/2412 20009KT P6SM BKN090 FM232100 20015G24KT P6SM VCSH BKN050 FM240100 20017KT P6SM -SHRA OVC020 FM240200 20017KT P6SM -SHRA OVC010 WS020/22045KT FM240600 23013KT 3SM BR VCSH BKN008 FM240900 25010G18KT 3SM BR SCT090